Time;durP1;ratioP1;P1;durP2;ratioP2;P2;SDS_P1;SDS_P2;PMS_P1;PMS_P2;Temp;Humidity;BMP_temperature;BMP_pressure;BME280_temperature;BME280_humidity;BME280_pressure;Samples;Min_cycle;Max_cycle;Signal;HPM_P1;HPM_P2
2021/01/15 00:01:49;;;;;;;4.88;0.28;;;17.20;50.90;;;;;;5088839;28;20078;-62
2021/01/15 00:04:15;;;;;;;0.30;0.30;;;17.10;50.90;;;;;;5087110;28;20044;-62
2021/01/15 00:06:42;;;;;;;0.28;0.28;;;17.10;50.90;;;;;;5087077;28;20265;-62
2021/01/15 00:09:09;;;;;;;0.20;0.20;;;17.10;50.80;;;;;;5086902;28;20048;-61
2021/01/15 00:11:35;;;;;;;0.57;0.40;;;17.10;50.80;;;;;;5087628;28;20055;-62
2021/01/15 00:14:03;;;;;;;0.60;0.20;;;17.10;50.80;;;;;;5089356;28;20078;-62
2021/01/15 00:16:33;;;;;;;6.13;0.45;;;17.10;50.90;;;;;;5087689;28;20508;-62
2021/01/15 00:19:01;;;;;;;0.20;0.20;;;17.10;50.90;;;;;;5087124;28;20048;-63
2021/01/15 00:21:29;;;;;;;0.30;0.30;;;17.10;50.90;;;;;;5086823;28;20040;-62
2021/01/15 00:23:57;;;;;;;0.20;0.20;;;17.00;50.80;;;;;;5087598;28;20052;-62
2021/01/15 00:26:25;;;;;;;0.28;0.28;;;17.00;50.80;;;;;;5087117;28;20213;-62
2021/01/15 00:29:03;;;;;;;0.30;0.30;;;17.00;50.80;;;;;;5087948;28;20515;-61
2021/01/15 00:31:31;;;;;;;0.65;0.65;;;17.00;50.70;;;;;;5086565;28;20067;-62
2021/01/15 00:33:58;;;;;;;0.82;0.25;;;17.00;50.70;;;;;;5086568;28;20048;-61
2021/01/15 00:36:24;;;;;;;29.67;13.13;;;17.00;50.70;;;;;;5085352;28;20054;-62
2021/01/15 00:38:51;;;;;;;27.45;8.30;;;17.00;50.70;;;;;;5083408;28;20072;-62
2021/01/15 00:41:18;;;;;;;11.45;5.85;;;16.90;50.70;;;;;;5085922;28;20044;-61
2021/01/15 00:43:44;;;;;;;14.75;6.47;;;16.90;50.70;;;;;;5087131;28;20090;-62
2021/01/15 00:46:14;;;;;;;14.43;5.63;;;16.90;50.70;;;;;;5083866;28;20044;-62
2021/01/15 00:48:41;;;;;;;9.60;4.78;;;16.90;50.80;;;;;;5084323;28;20365;-61
2021/01/15 00:51:09;;;;;;;12.10;4.47;;;16.90;50.70;;;;;;5081413;28;20556;-62
2021/01/15 00:53:35;;;;;;;8.18;3.38;;;16.90;50.70;;;;;;5088799;28;20044;-62
2021/01/15 00:56:03;;;;;;;8.20;3.15;;;16.90;50.70;;;;;;5087804;28;20044;-62
2021/01/15 00:58:29;;;;;;;11.63;3.55;;;16.80;50.60;;;;;;5077170;28;20089;-63
2021/01/15 01:00:56;;;;;;;8.38;3.65;;;16.80;50.60;;;;;;5081105;28;20473;-63
2021/01/15 01:03:34;;;;;;;9.35;3.22;;;16.80;50.50;;;;;;5078961;28;20048;-62
2021/01/15 01:06:02;;;;;;;5.63;2.63;;;16.80;50.50;;;;;;5082387;28;20063;-63
2021/01/15 01:08:32;;;;;;;6.80;2.70;;;16.80;50.40;;;;;;5084042;28;20127;-62
2021/01/15 01:10:59;;;;;;;6.57;2.13;;;16.80;50.40;;;;;;5084256;28;20062;-62
2021/01/15 01:13:25;;;;;;;3.70;2.22;;;16.80;50.40;;;;;;5083139;28;20135;-63
2021/01/15 01:15:52;;;;;;;4.95;2.42;;;16.80;50.30;;;;;;5083186;28;20056;-62
2021/01/15 01:18:18;;;;;;;4.43;1.98;;;16.80;50.30;;;;;;5084026;28;20076;-63
2021/01/15 01:20:45;;;;;;;3.30;1.70;;;16.70;50.20;;;;;;5084532;28;20159;-63
2021/01/15 01:23:12;;;;;;;10.80;1.17;;;16.70;50.20;;;;;;5085403;28;20052;-62
2021/01/15 01:25:39;;;;;;;2.17;1.23;;;16.70;50.20;;;;;;5086237;28;20056;-62
2021/01/15 01:28:06;;;;;;;3.85;1.02;;;16.70;50.30;;;;;;5085682;28;20131;-62
2021/01/15 01:30:32;;;;;;;2.92;1.40;;;16.70;50.20;;;;;;5083920;28;20067;-62
2021/01/15 01:32:59;;;;;;;1.77;1.08;;;16.70;50.10;;;;;;5084184;28;20044;-62
2021/01/15 01:35:26;;;;;;;1.25;0.80;;;16.70;50.10;;;;;;5085311;28;20048;-62
2021/01/15 01:37:52;;;;;;;2.35;0.80;;;16.70;50.10;;;;;;5087451;28;20125;-62
2021/01/15 01:40:20;;;;;;;1.38;0.90;;;16.70;50.10;;;;;;5083806;28;20040;-62
2021/01/15 01:42:47;;;;;;;3.10;0.65;;;16.60;50.00;;;;;;5084205;28;20055;-62
2021/01/15 01:45:14;;;;;;;0.75;0.50;;;16.60;50.00;;;;;;5085699;28;20056;-62
2021/01/15 01:47:40;;;;;;;5.40;0.75;;;16.60;49.90;;;;;;5087596;28;20044;-62
2021/01/15 01:50:08;;;;;;;1.00;0.82;;;16.60;49.90;;;;;;5089549;28;20116;-63
2021/01/15 01:52:36;;;;;;;0.85;0.50;;;16.60;50.00;;;;;;5088422;28;20154;-62
2021/01/15 01:55:04;;;;;;;1.65;0.50;;;16.60;50.00;;;;;;5089720;28;20531;-62
2021/01/15 01:57:33;;;;;;;1.90;0.40;;;16.60;50.00;;;;;;5089636;28;20036;-62
2021/01/15 01:59:59;;;;;;;1.75;0.77;;;16.60;49.90;;;;;;5090175;28;20516;-62
2021/01/15 02:02:26;;;;;;;0.63;0.50;;;16.60;49.80;;;;;;5088221;28;20198;-62
2021/01/15 02:04:53;;;;;;;2.53;0.70;;;16.60;49.80;;;;;;5091167;28;20052;-62
2021/01/15 02:07:20;;;;;;;4.57;1.08;;;16.50;49.80;;;;;;5089838;28;20044;-62
2021/01/15 02:09:55;;;;;;;0.35;0.30;;;16.50;49.80;;;;;;5089044;28;20585;-61
2021/01/15 02:12:31;;;;;;;0.77;0.65;;;16.50;50.30;;;;;;5089698;28;20040;-62
2021/01/15 02:15:05;;;;;;;0.63;0.50;;;16.50;49.70;;;;;;5087552;28;20130;-60
2021/01/15 02:17:36;;;;;;;2.00;0.57;;;16.50;49.80;;;;;;5088278;28;20052;-61
2021/01/15 02:20:21;;;;;;;0.93;0.73;;;16.50;49.80;;;;;;5090915;28;20105;-62
2021/01/15 02:23:04;;;;;;;1.40;0.90;;;16.50;49.70;;;;;;5089606;28;20436;-61
2021/01/15 02:26:00;;;;;;;0.70;0.47;;;16.50;49.70;;;;;;5090208;28;20079;-61
2021/01/15 02:28:49;;;;;;;0.47;0.47;;;16.50;49.70;;;;;;5087368;28;20543;-62
2021/01/15 02:32:09;;;;;;;1.05;0.60;;;16.40;49.60;;;;;;5087563;28;20067;-61
2021/01/15 02:34:53;;;;;;;0.50;0.45;;;16.40;49.60;;;;;;5007401;28;20057;-61
2021/01/15 02:37:24;;;;;;;1.02;0.38;;;16.40;49.60;;;;;;5004518;28;20057;-61
2021/01/15 02:40:04;;;;;;;1.48;0.40;;;16.40;49.60;;;;;;5006406;28;20538;-61
2021/01/15 02:42:35;;;;;;;2.35;0.85;;;16.40;49.50;;;;;;5006471;28;20038;-61
2021/01/15 02:45:05;;;;;;;1.05;0.45;;;16.40;49.50;;;;;;5006458;28;20192;-62
2021/01/15 02:47:45;;;;;;;0.52;0.50;;;16.40;49.40;;;;;;5000733;28;20418;-62
2021/01/15 02:50:13;;;;;;;1.20;0.93;;;16.40;49.40;;;;;;5001186;28;20046;-60
2021/01/15 02:52:41;;;;;;;1.05;0.65;;;16.40;49.30;;;;;;5001977;28;20042;-61
2021/01/15 02:55:10;;;;;;;1.75;0.52;;;16.40;49.30;;;;;;4996500;28;21111;-61
2021/01/15 02:57:37;;;;;;;0.85;0.60;;;16.30;49.10;;;;;;4995483;28;20107;-62
2021/01/15 03:00:06;;;;;;;0.88;0.77;;;16.30;49.20;;;;;;4996257;28;20046;-61
2021/01/15 03:02:42;;;;;;;1.25;0.57;;;16.30;49.20;;;;;;4995403;28;20046;-62
2021/01/15 03:05:15;;;;;;;1.70;0.55;;;16.30;49.20;;;;;;4990629;28;20047;-62
2021/01/15 03:07:45;;;;;;;1.98;0.68;;;16.30;49.20;;;;;;4992126;28;20044;-62
2021/01/15 03:10:13;;;;;;;1.08;0.70;;;16.30;49.20;;;;;;5049794;28;20067;-62
2021/01/15 03:12:43;;;;;;;1.15;1.08;;;16.30;49.10;;;;;;5084318;28;20043;-62
2021/01/15 03:15:14;;;;;;;1.08;0.82;;;16.30;49.10;;;;;;5080846;28;20061;-62
2021/01/15 03:17:44;;;;;;;1.10;0.95;;;16.30;49.10;;;;;;5086228;28;20044;-62
2021/01/15 03:20:11;;;;;;;3.35;1.15;;;16.30;49.20;;;;;;5082091;28;20071;-61
2021/01/15 03:22:39;;;;;;;2.00;1.08;;;16.30;49.20;;;;;;5082192;28;20166;-62
2021/01/15 03:25:07;;;;;;;0.80;0.60;;;16.30;49.20;;;;;;5096101;28;20172;-62
2021/01/15 03:27:43;;;;;;;0.80;0.80;;;16.30;49.20;;;;;;5101734;28;20036;-61
2021/01/15 03:30:11;;;;;;;0.87;0.87;;;16.30;49.20;;;;;;5100666;28;20043;-62
2021/01/15 03:32:37;;;;;;;1.15;0.90;;;16.30;49.20;;;;;;5099342;28;20545;-62
2021/01/15 03:35:06;;;;;;;1.40;0.80;;;16.30;49.20;;;;;;5088969;28;20057;-62
2021/01/15 03:37:33;;;;;;;1.20;1.15;;;16.30;49.10;;;;;;5087000;28;20626;-61
2021/01/15 03:40:00;;;;;;;5.55;1.25;;;16.30;49.10;;;;;;5087694;28;20052;-62
2021/01/15 03:42:27;;;;;;;2.47;0.70;;;16.30;49.10;;;;;;5088040;28;20046;-61
2021/01/15 03:44:54;;;;;;;2.80;0.85;;;16.20;49.00;;;;;;5087741;28;20048;-61
2021/01/15 03:47:20;;;;;;;1.40;1.30;;;16.30;49.20;;;;;;5087919;28;20039;-61
2021/01/15 03:49:47;;;;;;;1.85;1.10;;;16.30;49.10;;;;;;5087743;28;20044;-62
2021/01/15 03:52:14;;;;;;;1.83;1.58;;;16.20;49.10;;;;;;5087554;28;20044;-62
2021/01/15 03:54:41;;;;;;;1.45;1.35;;;16.30;49.10;;;;;;5085504;28;20525;-60
2021/01/15 03:57:07;;;;;;;1.80;1.20;;;16.20;49.00;;;;;;5083705;28;20040;-61
2021/01/15 03:59:35;;;;;;;3.35;1.40;;;16.20;48.90;;;;;;5087110;28;20512;-61
2021/01/15 04:02:01;;;;;;;0.95;0.85;;;16.20;48.80;;;;;;5089328;28;20123;-61
2021/01/15 04:04:28;;;;;;;1.45;0.93;;;16.20;48.70;;;;;;5088215;28;20056;-61
2021/01/15 04:06:54;;;;;;;2.88;1.45;;;16.20;48.70;;;;;;5087695;28;20526;-61
2021/01/15 04:09:21;;;;;;;1.48;0.90;;;16.20;48.70;;;;;;5086629;28;20055;-60
2021/01/15 04:11:47;;;;;;;3.25;1.33;;;16.20;48.70;;;;;;5086993;28;20038;-62
2021/01/15 04:14:14;;;;;;;2.15;1.77;;;16.20;48.60;;;;;;5086831;28;20055;-62
2021/01/15 04:16:41;;;;;;;1.77;1.67;;;16.20;48.70;;;;;;5088868;28;20434;-62
2021/01/15 04:19:08;;;;;;;2.03;1.42;;;16.20;48.70;;;;;;5087302;28;20508;-62
2021/01/15 04:21:34;;;;;;;1.92;1.67;;;16.20;48.70;;;;;;5087192;28;20046;-62
2021/01/15 04:24:01;;;;;;;1.70;1.60;;;16.20;48.60;;;;;;5086485;28;20048;-62
2021/01/15 04:26:27;;;;;;;5.25;2.05;;;16.20;48.60;;;;;;5087153;28;20036;-62
2021/01/15 04:28:54;;;;;;;1.30;1.17;;;16.10;48.50;;;;;;5088518;28;20040;-62
2021/01/15 04:31:20;;;;;;;2.13;1.33;;;16.10;48.50;;;;;;5087289;28;20135;-60
2021/01/15 04:33:48;;;;;;;3.97;1.42;;;16.20;48.60;;;;;;5087068;28;20685;-61
2021/01/15 04:36:14;;;;;;;1.88;1.60;;;16.20;48.60;;;;;;5087563;28;20039;-58
2021/01/15 04:38:42;;;;;;;4.07;2.00;;;16.10;48.50;;;;;;5087299;28;20405;-62
2021/01/15 04:41:09;;;;;;;5.18;1.65;;;16.10;48.40;;;;;;5087432;28;20123;-62
2021/01/15 04:43:39;;;;;;;3.28;1.85;;;16.10;48.50;;;;;;5087104;28;20101;-62
2021/01/15 04:46:07;;;;;;;2.40;2.20;;;16.10;48.50;;;;;;5087023;28;20056;-62
2021/01/15 04:48:34;;;;;;;4.07;1.90;;;16.10;48.40;;;;;;5086980;28;20043;-63
2021/01/15 04:51:03;;;;;;;5.63;2.53;;;16.10;48.40;;;;;;5086731;28;20089;-62
2021/01/15 04:53:35;;;;;;;2.08;1.75;;;16.10;48.30;;;;;;5087101;28;20487;-63
2021/01/15 04:56:03;;;;;;;2.05;1.70;;;16.10;48.20;;;;;;5083823;28;20094;-63
2021/01/15 04:58:34;;;;;;;2.38;1.90;;;16.10;48.10;;;;;;5087939;28;20091;-62
2021/01/15 05:01:00;;;;;;;3.10;2.30;;;16.10;48.10;;;;;;5086649;28;20739;-63
2021/01/15 05:03:27;;;;;;;2.95;2.05;;;16.10;48.00;;;;;;5085947;28;20510;-63
2021/01/15 05:05:59;;;;;;;2.63;2.03;;;16.10;47.90;;;;;;5086418;28;20055;-62
2021/01/15 05:08:28;;;;;;;3.72;2.38;;;16.10;48.00;;;;;;5086384;28;20071;-62
2021/01/15 05:10:55;;;;;;;8.07;2.72;;;16.10;47.90;;;;;;5086551;28;20527;-62
2021/01/15 05:13:22;;;;;;;2.88;2.60;;;16.00;47.80;;;;;;5086852;28;20065;-62
2021/01/15 05:15:51;;;;;;;5.05;2.75;;;16.10;47.90;;;;;;5086653;28;20068;-62
2021/01/15 05:18:19;;;;;;;4.97;3.30;;;16.00;47.70;;;;;;5086912;28;20105;-62
2021/01/15 05:20:47;;;;;;;3.13;2.83;;;16.00;47.80;;;;;;5086889;28;20117;-62
2021/01/15 05:23:16;;;;;;;5.60;3.17;;;16.00;47.80;;;;;;5090215;28;20190;-62
2021/01/15 05:25:46;;;;;;;4.72;3.58;;;16.00;47.80;;;;;;5092008;28;20052;-62
2021/01/15 05:28:14;;;;;;;3.72;3.30;;;16.00;47.70;;;;;;5091007;28;20526;-62
2021/01/15 05:30:41;;;;;;;3.85;3.55;;;16.00;47.70;;;;;;5089935;28;20131;-62
2021/01/15 05:33:13;;;;;;;5.68;3.10;;;16.00;47.70;;;;;;5090449;28;20040;-62
2021/01/15 05:35:42;;;;;;;4.90;3.05;;;16.00;47.60;;;;;;5090645;28;20044;-62
2021/01/15 05:38:12;;;;;;;4.78;2.92;;;16.00;47.60;;;;;;5090897;28;20071;-63
2021/01/15 05:40:41;;;;;;;3.28;2.97;;;16.00;47.60;;;;;;5090956;28;20634;-62
2021/01/15 05:43:19;;;;;;;3.78;3.00;;;16.00;47.60;;;;;;5090000;28;20186;-60
2021/01/15 05:46:05;;;;;;;11.60;5.38;;;16.00;47.60;;;;;;5082582;28;20637;-62
2021/01/15 05:48:31;;;;;;;5.93;4.15;;;16.00;47.60;;;;;;5090027;28;20416;-61
2021/01/15 05:50:58;;;;;;;4.82;3.30;;;16.00;47.70;;;;;;5089958;28;20646;-61
2021/01/15 05:53:25;;;;;;;4.28;3.88;;;15.90;47.60;;;;;;5089920;28;20047;-62
2021/01/15 05:55:55;;;;;;;5.80;3.78;;;16.00;47.60;;;;;;5090879;28;21113;-61
2021/01/15 05:58:23;;;;;;;3.10;2.80;;;15.90;47.50;;;;;;5088752;28;20130;-62
2021/01/15 06:00:54;;;;;;;5.38;3.22;;;16.00;47.50;;;;;;5088420;28;20086;-62
2021/01/15 06:03:22;;;;;;;5.88;3.58;;;15.90;47.40;;;;;;5088768;28;20101;-62
2021/01/15 06:05:50;;;;;;;4.85;3.95;;;15.90;47.40;;;;;;5088661;28;20040;-62
2021/01/15 06:08:17;;;;;;;4.72;4.25;;;15.90;47.30;;;;;;5089468;28;20480;-63
2021/01/15 06:10:47;;;;;;;6.82;3.70;;;16.00;47.40;;;;;;5088241;28;20048;-62
2021/01/15 06:13:36;;;;;;;4.93;4.40;;;16.00;47.30;;;;;;5089571;28;20143;-62
2021/01/15 06:16:05;;;;;;;4.72;4.32;;;16.00;47.20;;;;;;5085555;28;20048;-61
2021/01/15 06:18:31;;;;;;;5.43;4.40;;;15.90;47.20;;;;;;5089652;28;20044;-60
2021/01/15 06:21:08;;;;;;;5.07;4.45;;;15.90;47.20;;;;;;5089048;28;20044;-62
2021/01/15 06:23:42;;;;;;;6.68;3.92;;;15.90;47.20;;;;;;5086988;28;20052;-62
2021/01/15 06:26:09;;;;;;;4.50;4.15;;;15.90;47.30;;;;;;5089375;28;20060;-63
2021/01/15 06:28:38;;;;;;;5.40;3.53;;;15.90;47.20;;;;;;5089610;28;20479;-62
2021/01/15 06:31:08;;;;;;;7.50;4.88;;;15.90;47.20;;;;;;5088890;28;20047;-62
2021/01/15 06:33:36;;;;;;;6.30;4.57;;;15.90;47.10;;;;;;5088632;28;20072;-62
2021/01/15 06:36:05;;;;;;;7.25;4.45;;;15.90;47.10;;;;;;5088747;28;20063;-62
2021/01/15 06:38:32;;;;;;;7.55;4.82;;;15.90;47.00;;;;;;5088312;28;20444;-62
2021/01/15 06:40:59;;;;;;;9.75;5.70;;;15.90;47.00;;;;;;5090013;28;20123;-62
2021/01/15 06:43:28;;;;;;;8.43;5.20;;;15.90;47.00;;;;;;5088669;28;20075;-62
2021/01/15 06:45:57;;;;;;;5.88;4.68;;;15.90;46.90;;;;;;5088342;28;20523;-62
2021/01/15 06:48:27;;;;;;;10.40;5.18;;;15.90;46.90;;;;;;5088908;28;20523;-62
2021/01/15 06:50:55;;;;;;;8.18;5.63;;;15.80;46.80;;;;;;5088994;28;20056;-62
2021/01/15 06:53:24;;;;;;;7.53;5.25;;;15.80;46.70;;;;;;5088796;28;20149;-61
2021/01/15 06:55:52;;;;;;;5.10;4.68;;;15.80;46.80;;;;;;5088656;28;20086;-61
2021/01/15 06:58:25;;;;;;;8.00;5.28;;;15.90;46.80;;;;;;5087411;28;20480;-61
2021/01/15 07:01:21;;;;;;;5.40;4.80;;;15.90;46.70;;;;;;5088022;28;20057;-61
2021/01/15 07:04:03;;;;;;;6.32;4.88;;;15.90;46.80;;;;;;5082135;28;20050;-62
2021/01/15 07:06:31;;;;;;;4.95;4.57;;;15.80;46.80;;;;;;5086482;28;20048;-61
2021/01/15 07:08:59;;;;;;;8.75;6.05;;;15.80;47.00;;;;;;5088672;28;20044;-61
2021/01/15 07:11:28;;;;;;;8.55;6.13;;;15.80;47.00;;;;;;5088377;28;20074;-61
2021/01/15 07:13:57;;;;;;;9.05;6.45;;;15.80;47.10;;;;;;5090189;28;20135;-62
2021/01/15 07:16:29;;;;;;;6.32;4.82;;;15.80;47.10;;;;;;5086823;28;20500;-61
2021/01/15 07:19:15;;;;;;;5.93;5.15;;;15.80;47.10;;;;;;5088437;28;20113;-60
2021/01/15 07:22:08;;;;;;;7.65;6.10;;;15.80;47.00;;;;;;5082753;28;20055;-62
2021/01/15 07:24:36;;;;;;;6.35;5.57;;;15.80;47.00;;;;;;5088231;28;20519;-62
2021/01/15 07:27:05;;;;;;;6.20;5.32;;;15.80;46.90;;;;;;5088089;28;20044;-62
2021/01/15 07:29:34;;;;;;;4.30;3.92;;;15.80;46.90;;;;;;5086248;28;20456;-62
2021/01/15 07:32:07;;;;;;;4.82;4.32;;;15.80;47.00;;;;;;5089693;28;20063;-63
2021/01/15 07:34:37;;;;;;;5.53;3.88;;;15.80;46.90;;;;;;5088765;28;20056;-62
2021/01/15 07:37:18;;;;;;;5.65;5.10;;;15.70;46.90;;;;;;5084148;28;20530;-62
2021/01/15 07:40:07;;;;;;;5.80;5.13;;;15.80;46.90;;;;;;5087772;28;20048;-62
2021/01/15 07:42:45;;;;;;;6.97;5.85;;;15.80;47.00;;;;;;5088143;28;20075;-62
2021/01/15 07:45:50;;;;;;;5.25;4.07;;;15.70;46.90;;;;;;5087250;28;20052;-62
2021/01/15 07:48:19;;;;;;;8.20;5.47;;;15.70;47.00;;;;;;5086456;28;20125;-62
2021/01/15 07:50:48;;;;;;;4.85;4.43;;;15.70;47.00;;;;;;5087198;28;20040;-62
2021/01/15 07:53:21;;;;;;;4.88;4.15;;;15.70;46.90;;;;;;5087547;28;20048;-62
2021/01/15 07:55:49;;;;;;;5.53;4.97;;;15.70;46.90;;;;;;5088591;28;20051;-62
2021/01/15 07:58:17;;;;;;;6.47;3.70;;;15.70;46.80;;;;;;5086324;28;20044;-62
2021/01/15 08:00:45;;;;;;;6.53;4.53;;;15.70;46.80;;;;;;5088042;28;20490;-62
2021/01/15 08:03:12;;;;;;;5.55;4.43;;;15.70;47.00;;;;;;5086855;28;20048;-63
2021/01/15 08:05:42;;;;;;;14.70;5.22;;;15.70;47.00;;;;;;5086580;28;20051;-63
2021/01/15 08:08:10;;;;;;;7.30;5.93;;;15.70;47.20;;;;;;5084315;28;20052;-62
2021/01/15 08:10:48;;;;;;;7.80;6.22;;;15.70;47.10;;;;;;5079088;28;20082;-62
2021/01/15 08:13:23;;;;;;;10.30;5.05;;;15.70;47.20;;;;;;5087303;28;20056;-62
2021/01/15 08:15:50;;;;;;;7.32;5.18;;;15.70;47.20;;;;;;5087316;28;20075;-62
2021/01/15 08:18:17;;;;;;;7.32;5.75;;;15.70;47.20;;;;;;5087376;28;20040;-62
2021/01/15 08:20:50;;;;;;;6.40;4.82;;;15.70;47.30;;;;;;5087134;28;20040;-61
2021/01/15 08:23:22;;;;;;;6.30;5.15;;;15.70;47.40;;;;;;5087579;28;20143;-62
2021/01/15 08:25:50;;;;;;;7.22;5.18;;;15.70;47.30;;;;;;5085875;28;20472;-62
2021/01/15 08:28:17;;;;;;;6.22;4.57;;;15.70;47.40;;;;;;5087324;28;20044;-62
2021/01/15 08:30:57;;;;;;;6.28;4.57;;;15.70;47.40;;;;;;5087082;28;20055;-61
2021/01/15 08:33:24;;;;;;;6.68;5.10;;;15.80;47.40;;;;;;5086279;28;20047;-62
2021/01/15 08:35:55;;;;;;;7.80;4.90;;;15.70;47.20;;;;;;5087567;28;20081;-62
2021/01/15 08:38:31;;;;;;;5.45;4.20;;;15.70;47.20;;;;;;5085787;28;20040;-63
2021/01/15 08:40:59;;;;;;;11.93;5.45;;;15.70;47.10;;;;;;5087427;28;20146;-62
2021/01/15 08:43:26;;;;;;;7.07;5.05;;;15.70;47.10;;;;;;5086504;28;20048;-62
2021/01/15 08:45:53;;;;;;;4.43;3.95;;;15.70;47.00;;;;;;5085458;28;20048;-62
2021/01/15 08:48:21;;;;;;;5.22;4.18;;;15.70;46.90;;;;;;5086539;28;20377;-62
2021/01/15 08:50:49;;;;;;;5.47;4.45;;;15.70;46.90;;;;;;5086904;28;20511;-62
2021/01/15 08:53:23;;;;;;;6.47;4.20;;;15.70;46.90;;;;;;5087531;28;20056;-61
2021/01/15 08:55:55;;;;;;;7.80;4.28;;;15.70;46.80;;;;;;5087821;28;20523;-62
2021/01/15 08:58:23;;;;;;;4.43;3.85;;;15.70;46.70;;;;;;5090972;28;20472;-62
2021/01/15 09:00:49;;;;;;;4.63;4.03;;;15.70;46.70;;;;;;5090634;28;20508;-61
2021/01/15 09:03:20;;;;;;;4.22;3.83;;;15.70;46.70;;;;;;5090845;28;20131;-62
2021/01/15 09:05:47;;;;;;;4.88;4.10;;;15.70;46.80;;;;;;5091230;28;20071;-62
2021/01/15 09:08:17;;;;;;;3.75;3.45;;;15.70;46.90;;;;;;5091604;28;20059;-67
2021/01/15 09:10:48;;;;;;;4.22;3.67;;;15.70;46.90;;;;;;5090466;28;20052;-63
2021/01/15 09:13:16;;;;;;;6.43;3.65;;;15.70;46.90;;;;;;5090730;28;20544;-67
2021/01/15 09:15:49;;;;;;;5.22;3.70;;;15.70;46.70;;;;;;5090840;28;20401;-62
2021/01/15 09:18:15;;;;;;;3.70;3.40;;;15.70;46.50;;;;;;5090366;28;20050;-61
2021/01/15 09:20:42;;;;;;;7.88;3.08;;;15.70;46.70;;;;;;5091150;28;20044;-68
2021/01/15 09:23:09;;;;;;;5.68;3.80;;;15.70;46.80;;;;;;5090990;28;20126;-71
2021/01/15 09:25:35;;;;;;;4.40;3.15;;;15.80;46.70;;;;;;5090252;28;20588;-70
2021/01/15 09:28:03;;;;;;;6.50;3.45;;;15.80;46.60;;;;;;5090769;28;20056;-68
2021/01/15 09:30:31;;;;;;;5.60;3.53;;;15.80;46.50;;;;;;5085289;28;20155;-66
2021/01/15 09:32:57;;;;;;;11.32;3.53;;;15.80;46.30;;;;;;5090472;28;20602;-66
2021/01/15 09:35:24;;;;;;;4.97;4.07;;;15.80;46.30;;;;;;5090465;28;20044;-63
2021/01/15 09:37:52;;;;;;;16.55;3.97;;;15.80;46.20;;;;;;5092050;28;20153;-67
2021/01/15 09:40:19;;;;;;;4.43;2.95;;;15.80;46.00;;;;;;5081844;28;21641;-68
2021/01/15 09:42:48;;;;;;;6.53;4.45;;;15.80;45.90;;;;;;5078879;28;20048;-61
2021/01/15 09:45:16;;;;;;;8.07;3.05;;;15.90;45.90;;;;;;5082830;28;20140;-60
2021/01/15 09:47:45;;;;;;;3.30;2.55;;;15.80;45.70;;;;;;5088260;28;20055;-73
2021/01/15 09:50:13;;;;;;;5.32;3.08;;;15.90;45.70;;;;;;5086809;28;20051;-65
2021/01/15 09:52:41;;;;;;;5.95;3.72;;;15.90;45.60;;;;;;5093532;28;20062;-63
2021/01/15 09:55:08;;;;;;;9.65;3.65;;;15.90;45.50;;;;;;5089915;28;20048;-62
2021/01/15 09:57:43;;;;;;;7.80;3.08;;;15.90;45.40;;;;;;5086300;28;20048;-61
2021/01/15 10:00:11;;;;;;;5.45;2.97;;;15.90;45.30;;;;;;5086156;28;20074;-64
2021/01/15 10:02:39;;;;;;;5.03;2.55;;;15.90;45.20;;;;;;5090310;28;20067;-61
2021/01/15 10:05:07;;;;;;;8.80;3.80;;;15.90;45.20;;;;;;5086719;28;20105;-63
2021/01/15 10:07:34;;;;;;;4.38;2.47;;;15.90;45.10;;;;;;5085003;28;20036;-61
2021/01/15 10:10:01;;;;;;;5.20;3.50;;;15.90;45.00;;;;;;5098676;28;20050;-61
2021/01/15 10:12:28;;;;;;;6.90;3.28;;;15.90;44.90;;;;;;5103543;28;20048;-61
2021/01/15 10:14:55;;;;;;;3.25;2.65;;;15.90;44.80;;;;;;5096963;28;20052;-61
2021/01/15 10:17:21;;;;;;;3.58;3.28;;;15.90;44.80;;;;;;5089451;28;20036;-61
2021/01/15 10:19:49;;;;;;;7.55;3.25;;;16.00;44.80;;;;;;5090342;28;20052;-60
2021/01/15 10:22:16;;;;;;;5.85;3.85;;;15.90;44.60;;;;;;5087700;28;20064;-60
2021/01/15 10:24:42;;;;;;;6.28;3.47;;;16.00;44.70;;;;;;5089515;28;20048;-60
2021/01/15 10:27:09;;;;;;;11.32;4.13;;;15.90;44.60;;;;;;5088656;28;20068;-62
2021/01/15 10:29:35;;;;;;;9.10;4.05;;;15.90;44.60;;;;;;5087296;28;20408;-63
2021/01/15 10:32:03;;;;;;;6.97;4.13;;;16.00;44.60;;;;;;5090861;28;20801;-61
2021/01/15 10:34:30;;;;;;;4.07;3.15;;;16.00;44.60;;;;;;5089659;28;20040;-61
2021/01/15 10:36:58;;;;;;;6.72;3.53;;;16.00;44.50;;;;;;5088941;28;20056;-63
2021/01/15 10:39:25;;;;;;;5.25;3.17;;;16.00;44.40;;;;;;5088605;28;20040;-61
2021/01/15 10:41:52;;;;;;;6.97;4.40;;;16.00;44.40;;;;;;5087878;28;20052;-61
2021/01/15 10:44:20;;;;;;;10.07;3.67;;;16.00;44.40;;;;;;5088254;28;20032;-61
2021/01/15 10:46:50;;;;;;;7.47;3.90;;;16.00;44.30;;;;;;5088529;28;20642;-61
2021/01/15 10:49:18;;;;;;;6.00;3.88;;;16.10;44.20;;;;;;5086116;28;20056;-63
2021/01/15 10:51:46;;;;;;;4.95;4.20;;;16.10;44.00;;;;;;5088619;28;20131;-60
2021/01/15 10:54:14;;;;;;;6.78;3.53;;;16.10;44.30;;;;;;5087919;28;20089;-60
2021/01/15 10:56:43;;;;;;;6.63;4.25;;;16.10;44.40;;;;;;5089059;28;20128;-61
2021/01/15 10:59:09;;;;;;;7.38;3.75;;;16.20;44.50;;;;;;5088390;28;20052;-60
2021/01/15 11:01:37;;;;;;;8.65;4.47;;;16.20;44.40;;;;;;5088990;28;20144;-61
2021/01/15 11:04:06;;;;;;;6.22;3.72;;;16.20;44.30;;;;;;5088564;28;20071;-59
2021/01/15 11:06:34;;;;;;;6.70;3.63;;;16.20;44.30;;;;;;5088482;28;20063;-59
2021/01/15 11:09:01;;;;;;;4.78;3.67;;;16.20;44.30;;;;;;5088374;28;20044;-61
2021/01/15 11:11:29;;;;;;;6.50;3.95;;;16.30;44.30;;;;;;5088415;28;20032;-59
2021/01/15 11:13:56;;;;;;;5.72;3.55;;;16.30;44.30;;;;;;5089473;28;20058;-59
2021/01/15 11:16:24;;;;;;;5.70;3.95;;;16.30;44.00;;;;;;5088069;28;20079;-59
2021/01/15 11:18:51;;;;;;;6.78;3.45;;;16.40;43.80;;;;;;5088461;28;20056;-59
2021/01/15 11:21:23;;;;;;;6.85;4.43;;;16.40;43.40;;;;;;5088221;28;20478;-57
2021/01/15 11:23:50;;;;;;;4.40;4.00;;;16.40;42.90;;;;;;5088464;28;20044;-58
2021/01/15 11:26:24;;;;;;;4.00;3.55;;;16.40;42.60;;;;;;5087441;28;20052;-59
2021/01/15 11:28:54;;;;;;;5.40;3.00;;;16.40;42.50;;;;;;5088275;28;20087;-58
2021/01/15 11:31:21;;;;;;;7.85;3.58;;;16.50;42.30;;;;;;5087820;28;20044;-59
2021/01/15 11:33:49;;;;;;;6.93;3.55;;;16.50;42.50;;;;;;5087495;28;20479;-58
2021/01/15 11:36:16;;;;;;;4.65;3.85;;;16.50;42.40;;;;;;5087709;28;20044;-58
2021/01/15 11:38:43;;;;;;;3.83;2.85;;;16.60;42.30;;;;;;5087335;28;20040;-55
2021/01/15 11:41:13;;;;;;;4.97;1.67;;;16.60;42.60;;;;;;5087794;28;20048;-60
2021/01/15 11:43:40;;;;;;;4.20;2.97;;;16.60;43.30;;;;;;5086440;28;20075;-58
2021/01/15 11:46:08;;;;;;;3.95;2.72;;;16.60;42.50;;;;;;5083980;28;20048;-60
2021/01/15 11:48:35;;;;;;;6.85;2.22;;;16.70;43.10;;;;;;5087092;28;20617;-58
2021/01/15 11:51:02;;;;;;;5.22;2.13;;;16.70;42.10;;;;;;5087614;28;20051;-58
2021/01/15 11:53:33;;;;;;;3.83;1.80;;;16.70;42.30;;;;;;5087646;28;20044;-58
2021/01/15 11:56:01;;;;;;;1.88;1.40;;;16.80;43.10;;;;;;5088029;28;20059;-59
2021/01/15 11:58:28;;;;;;;5.10;2.10;;;16.80;43.10;;;;;;5086936;28;20047;-58
2021/01/15 12:00:55;;;;;;;2.65;1.80;;;16.80;43.20;;;;;;5086772;28;20816;-59
2021/01/15 12:03:24;;;;;;;3.80;1.60;;;16.80;43.30;;;;;;5087215;28;20039;-60
2021/01/15 12:05:51;;;;;;;3.85;2.38;;;16.80;42.90;;;;;;5087477;28;20051;-59
2021/01/15 12:08:19;;;;;;;6.60;3.05;;;16.80;42.10;;;;;;5087191;28;20538;-59
2021/01/15 12:10:47;;;;;;;2.33;1.40;;;16.90;41.60;;;;;;5102535;28;20040;-56
2021/01/15 12:13:14;;;;;;;2.90;1.08;;;16.90;42.00;;;;;;5084150;28;20066;-59
2021/01/15 12:15:40;;;;;;;1.17;1.00;;;16.90;42.10;;;;;;5086900;28;20059;-59
2021/01/15 12:18:12;;;;;;;2.85;1.08;;;16.90;42.20;;;;;;5086783;28;20050;-61
2021/01/15 12:20:40;;;;;;;2.50;1.77;;;16.90;42.20;;;;;;5083149;28;20040;-58
2021/01/15 12:23:07;;;;;;;2.25;1.35;;;16.90;41.90;;;;;;5087218;28;20048;-59
2021/01/15 12:25:38;;;;;;;4.13;1.73;;;16.90;41.90;;;;;;5087561;28;20033;-58
2021/01/15 12:28:06;;;;;;;1.67;1.58;;;17.00;41.80;;;;;;5083908;28;20508;-58
2021/01/15 12:30:33;;;;;;;3.70;1.02;;;17.00;41.40;;;;;;5085397;28;20044;-59
2021/01/15 12:33:05;;;;;;;2.60;1.98;;;17.00;41.30;;;;;;5086848;28;20048;-58
2021/01/15 12:35:31;;;;;;;2.95;1.35;;;17.00;40.50;;;;;;5086310;28;20052;-58
2021/01/15 12:38:04;;;;;;;2.30;1.08;;;17.00;40.80;;;;;;5088005;28;20115;-58
2021/01/15 12:40:31;;;;;;;3.80;1.20;;;17.00;41.00;;;;;;5082235;28;20040;-59
2021/01/15 12:42:58;;;;;;;2.30;0.75;;;17.00;40.90;;;;;;5086563;28;20044;-61
2021/01/15 12:45:24;;;;;;;5.85;1.40;;;17.00;40.90;;;;;;5086220;28;20067;-59
2021/01/15 12:47:52;;;;;;;8.50;0.70;;;17.00;40.50;;;;;;5086846;28;20040;-59
2021/01/15 12:50:19;;;;;;;2.83;0.35;;;17.00;40.80;;;;;;5087119;28;20047;-59
2021/01/15 12:52:46;;;;;;;0.88;0.60;;;17.00;41.00;;;;;;5087854;28;20055;-59
2021/01/15 12:55:13;;;;;;;2.58;1.13;;;17.00;40.60;;;;;;5086344;28;20052;-60
2021/01/15 12:57:40;;;;;;;3.05;1.08;;;17.10;40.70;;;;;;5086710;28;20397;-60